Time;durP1;ratioP1;P1;durP2;ratioP2;P2;SDS_P1;SDS_P2;PMS_P1;PMS_P2;Temp;Humidity;BMP_temperature;BMP_pressure;BME280_temperature;BME280_humidity;BME280_pressure;Samples;Min_cycle;Max_cycle;Signal;HPM_P1;HPM_P2
2021/03/26 05:12:35;;;;;;;1.27;1.27;;;7.30;99.90;;;;;;5025718;23;20235;-76
2021/03/26 05:15:08;;;;;;;1.00;1.00;;;7.70;99.90;;;;;;4995923;28;20204;-76
2021/03/26 05:17:42;;;;;;;1.30;1.30;;;7.30;99.90;;;;;;4995810;28;20291;-76
2021/03/26 05:20:21;;;;;;;0.90;0.90;;;7.30;99.90;;;;;;4996067;28;20208;-76
2021/03/26 05:22:53;;;;;;;1.40;1.40;;;7.70;99.90;;;;;;4996484;28;20199;-75
2021/03/26 05:25:26;;;;;;;0.97;0.97;;;7.40;99.90;;;;;;4995673;28;20258;-75
2021/03/26 05:27:56;;;;;;;0.97;0.97;;;7.50;99.90;;;;;;4995801;28;20204;-75
2021/03/26 05:30:25;;;;;;;1.20;1.20;;;7.50;99.90;;;;;;4995578;28;20224;-75
2021/03/26 05:33:14;;;;;;;1.00;1.00;;;7.50;99.90;;;;;;4995787;28;20290;-77
2021/03/26 05:35:50;;;;;;;1.00;1.00;;;7.50;99.90;;;;;;4995723;28;20200;-76
2021/03/26 05:38:21;;;;;;;1.10;1.10;;;7.60;99.90;;;;;;4995561;28;20204;-75
2021/03/26 05:41:13;;;;;;;1.00;1.00;;;8.00;99.90;;;;;;4995497;28;20628;-77
2021/03/26 05:44:02;;;;;;;1.00;1.00;;;7.60;99.90;;;;;;4995477;28;20203;-76
2021/03/26 05:46:43;;;;;;;0.80;0.80;;;7.80;99.90;;;;;;4995386;28;20704;-76
2021/03/26 05:49:20;;;;;;;1.10;1.10;;;7.80;99.90;;;;;;4995702;28;20204;-76
2021/03/26 05:52:20;;;;;;;1.07;1.07;;;7.80;99.90;;;;;;4995566;28;20586;-76
2021/03/26 05:55:00;;;;;;;1.03;1.03;;;7.90;99.90;;;;;;4979957;28;20620;-75
2021/03/26 05:57:35;;;;;;;1.10;1.10;;;7.90;99.90;;;;;;4987558;28;20231;-75
2021/03/26 06:00:34;;;;;;;0.90;0.90;;;8.10;99.90;;;;;;4974903;28;20264;-77
2021/03/26 06:03:28;;;;;;;0.80;0.80;;;8.20;99.90;;;;;;4993950;28;20623;-74
2021/03/26 06:06:26;;;;;;;0.90;0.90;;;8.10;99.90;;;;;;4993495;28;20211;-76
2021/03/26 06:09:31;;;;;;;1.03;1.03;;;8.20;99.90;;;;;;4992160;28;20621;-74
2021/03/26 06:12:26;;;;;;;0.97;0.97;;;8.30;99.90;;;;;;4989438;28;20712;-75
2021/03/26 06:15:33;;;;;;;1.00;1.00;;;8.30;99.90;;;;;;4993856;28;20227;-74
2021/03/26 06:18:23;;;;;;;0.90;0.90;;;8.10;99.90;;;;;;4993664;28;20207;-75
2021/03/26 06:21:03;;;;;;;0.90;0.90;;;8.40;99.90;;;;;;4994021;28;20220;-75
2021/03/26 06:24:00;;;;;;;0.93;0.93;;;8.50;99.90;;;;;;4992976;28;20630;-75
2021/03/26 06:26:56;;;;;;;0.90;0.90;;;8.70;99.90;;;;;;4985482;28;20254;-75
2021/03/26 06:29:33;;;;;;;0.93;0.93;;;8.80;99.90;;;;;;4986062;28;20213;-75
2021/03/26 06:32:41;;;;;;;0.80;0.80;;;8.90;99.90;;;;;;4993707;28;20346;-75
2021/03/26 06:35:35;;;;;;;1.00;1.00;;;8.90;99.90;;;;;;4993209;28;20206;-75
2021/03/26 06:38:24;;;;;;;0.90;0.90;;;9.00;99.90;;;;;;4993431;28;20200;-75
2021/03/26 06:41:04;;;;;;;0.80;0.80;;;9.10;99.90;;;;;;4993578;28;20274;-75
2021/03/26 06:43:51;;;;;;;0.90;0.90;;;9.10;99.90;;;;;;4994190;28;20258;-78
2021/03/26 06:46:35;;;;;;;0.90;0.90;;;9.40;99.90;;;;;;4993640;28;20721;-75
2021/03/26 06:49:15;;;;;;;0.90;0.90;;;9.50;99.90;;;;;;4993682;28;20286;-75
2021/03/26 06:51:59;;;;;;;1.00;1.00;;;9.60;99.90;;;;;;4993735;28;20231;-75
2021/03/26 06:55:01;;;;;;;0.80;0.80;;;9.70;99.90;;;;;;4993586;28;20656;-75
2021/03/26 06:58:04;;;;;;;0.90;0.90;;;9.70;99.90;;;;;;4993268;28;20207;-76
2021/03/26 07:01:01;;;;;;;0.88;0.88;;;9.80;99.90;;;;;;4993360;28;20700;-75
2021/03/26 07:04:03;;;;;;;0.80;0.80;;;9.90;99.90;;;;;;4980497;28;20262;-76
2021/03/26 07:07:00;;;;;;;0.80;0.80;;;10.00;99.90;;;;;;4993332;28;20218;-76
2021/03/26 07:09:42;;;;;;;0.80;0.80;;;10.20;99.90;;;;;;4993375;28;20272;-74
2021/03/26 07:12:19;;;;;;;0.90;0.90;;;10.50;99.90;;;;;;4992464;28;20227;-75
2021/03/26 07:14:58;;;;;;;0.60;0.60;;;10.30;99.90;;;;;;4992745;28;20727;-74
2021/03/26 07:17:47;;;;;;;0.80;0.80;;;10.60;99.90;;;;;;4993292;28;20212;-75
2021/03/26 07:20:45;;;;;;;0.82;0.82;;;10.60;99.90;;;;;;4993275;28;20363;-75
2021/03/26 07:23:45;;;;;;;0.70;0.70;;;10.60;99.90;;;;;;4992766;28;20736;-75
2021/03/26 07:26:25;;;;;;;0.80;0.80;;;10.60;99.90;;;;;;4992736;28;20259;-75
2021/03/26 07:29:28;;;;;;;0.80;0.80;;;10.70;99.90;;;;;;4992698;28;20267;-75
2021/03/26 07:32:14;;;;;;;0.80;0.80;;;11.30;99.90;;;;;;4992531;28;20276;-75
2021/03/26 07:35:07;;;;;;;0.80;0.80;;;10.80;99.60;;;;;;4992310;28;20203;-75
2021/03/26 07:37:45;;;;;;;0.82;0.82;;;11.20;99.90;;;;;;4992959;28;20712;-75
2021/03/26 07:40:44;;;;;;;0.80;0.80;;;11.00;99.90;;;;;;4992804;28;20210;-75
2021/03/26 07:43:33;;;;;;;0.80;0.80;;;11.10;99.30;;;;;;4988119;28;20207;-75
2021/03/26 07:46:21;;;;;;;0.75;0.75;;;11.20;99.40;;;;;;4993808;28;20208;-74
2021/03/26 07:49:10;;;;;;;0.70;0.70;;;11.40;99.30;;;;;;4992598;28;20580;-74
2021/03/26 07:51:42;;;;;;;0.70;0.70;;;11.50;98.90;;;;;;4992187;28;20658;-74
2021/03/26 07:54:32;;;;;;;0.70;0.70;;;11.70;98.60;;;;;;4992239;28;20622;-74
2021/03/26 07:57:26;;;;;;;0.60;0.60;;;11.90;98.80;;;;;;4991970;28;20661;-74
2021/03/26 08:00:21;;;;;;;0.60;0.60;;;12.00;98.40;;;;;;4992241;28;20214;-74
2021/03/26 08:03:13;;;;;;;0.60;0.60;;;12.10;97.80;;;;;;4979800;28;20254;-73
2021/03/26 08:05:49;;;;;;;0.65;0.65;;;12.20;97.80;;;;;;4991968;28;20208;-74
2021/03/26 08:08:37;;;;;;;0.70;0.70;;;12.30;99.90;;;;;;4992001;28;20199;-74
2021/03/26 08:11:12;;;;;;;0.60;0.60;;;12.40;97.30;;;;;;4991739;28;20270;-74
2021/03/26 08:13:59;;;;;;;0.50;0.50;;;12.50;97.30;;;;;;4991798;28;20254;-74
2021/03/26 08:17:02;;;;;;;0.70;0.70;;;12.50;97.30;;;;;;4991884;28;20203;-74
2021/03/26 08:19:37;;;;;;;0.70;0.70;;;12.60;96.80;;;;;;4992029;28;20228;-74
2021/03/26 08:22:18;;;;;;;0.70;0.70;;;12.40;96.60;;;;;;4991920;28;20708;-74
2021/03/26 08:25:21;;;;;;;0.60;0.60;;;12.50;96.80;;;;;;4991821;28;20277;-74
2021/03/26 08:28:03;;;;;;;0.65;0.65;;;12.60;96.50;;;;;;4991952;28;20211;-74
2021/03/26 08:30:43;;;;;;;0.50;0.50;;;12.70;96.50;;;;;;4992116;28;20219;-75
2021/03/26 08:33:38;;;;;;;0.50;0.50;;;12.80;96.70;;;;;;4991830;28;20207;-76
2021/03/26 08:36:20;;;;;;;0.60;0.60;;;13.00;96.70;;;;;;4985238;28;20214;-74
2021/03/26 08:39:13;;;;;;;0.50;0.50;;;13.00;96.20;;;;;;4992414;28;20214;-74
2021/03/26 08:41:44;;;;;;;0.50;0.50;;;13.20;95.90;;;;;;4992022;28;20220;-75
2021/03/26 08:44:16;;;;;;;0.60;0.60;;;13.20;95.50;;;;;;4991960;28;20631;-75
2021/03/26 08:46:49;;;;;;;0.50;0.50;;;13.30;99.90;;;;;;4991995;28;20418;-73
2021/03/26 08:49:38;;;;;;;0.60;0.60;;;13.40;99.90;;;;;;4992028;28;20295;-74
2021/03/26 08:52:41;;;;;;;0.50;0.50;;;13.40;99.90;;;;;;4990553;28;20224;-74
2021/03/26 08:55:35;;;;;;;0.60;0.60;;;13.50;99.90;;;;;;4991482;28;20291;-73
2021/03/26 08:58:16;;;;;;;0.70;0.70;;;13.60;99.90;;;;;;4991726;28;20664;-74
2021/03/26 09:01:09;;;;;;;0.50;0.50;;;13.60;99.90;;;;;;4991496;28;20774;-74
2021/03/26 09:03:49;;;;;;;0.50;0.50;;;13.70;99.90;;;;;;4991207;28;20715;-74
2021/03/26 09:06:30;;;;;;;0.50;0.50;;;13.60;96.70;;;;;;4991299;28;20218;-74
2021/03/26 09:09:12;;;;;;;0.60;0.60;;;14.00;98.00;;;;;;4991752;28;20251;-74
2021/03/26 09:11:59;;;;;;;0.40;0.40;;;14.00;99.90;;;;;;4991947;28;20227;-74
2021/03/26 09:14:56;;;;;;;0.60;0.60;;;14.00;99.90;;;;;;4991372;28;20204;-74
2021/03/26 09:17:26;;;;;;;0.50;0.50;;;14.40;98.70;;;;;;4991395;28;20564;-74
2021/03/26 09:19:59;;;;;;;0.52;0.52;;;14.50;97.70;;;;;;4991567;28;20271;-74
2021/03/26 09:22:58;;;;;;;0.60;0.60;;;14.60;97.30;;;;;;4991519;28;20220;-74
2021/03/26 09:25:42;;;;;;;0.43;0.43;;;14.80;98.00;;;;;;4990770;28;20204;-74
2021/03/26 09:28:21;;;;;;;0.40;0.40;;;14.90;97.00;;;;;;4991360;28;20211;-74
2021/03/26 09:30:57;;;;;;;0.40;0.40;;;15.00;99.60;;;;;;4991268;28;20228;-74
2021/03/26 09:33:25;;;;;;;0.45;0.45;;;15.00;99.90;;;;;;4991363;28;20200;-74
2021/03/26 09:36:24;;;;;;;0.60;0.60;;;15.10;99.90;;;;;;4994800;28;20204;-74
2021/03/26 09:39:02;;;;;;;0.50;0.50;;;;;;;;;;4994849;28;20207;-74
2021/03/26 09:41:44;;;;;;;0.50;0.50;;;;;;;;;;4994818;28;20216;-73
2021/03/26 09:44:20;;;;;;;0.40;0.40;;;;;;;;;;4995055;28;20608;-73
2021/03/26 09:46:53;;;;;;;0.50;0.50;;;15.70;99.90;;;;;;4994623;28;20211;-74
2021/03/26 09:49:25;;;;;;;0.50;0.50;;;15.80;91.20;;;;;;4994735;28;20204;-74
2021/03/26 09:51:56;;;;;;;0.40;0.40;;;15.80;91.80;;;;;;4994651;28;20228;-74
2021/03/26 09:54:33;;;;;;;0.50;0.50;;;15.90;90.10;;;;;;4994691;28;20684;-74
2021/03/26 09:57:15;;;;;;;0.40;0.40;;;15.90;90.70;;;;;;4994564;28;20208;-74
2021/03/26 09:59:52;;;;;;;0.50;0.50;;;15.90;84.80;;;;;;4994600;28;20246;-73
2021/03/26 10:02:30;;;;;;;0.40;0.40;;;16.00;84.60;;;;;;4999090;28;20224;-74
2021/03/26 10:05:07;;;;;;;0.40;0.40;;;15.80;87.50;;;;;;4994532;28;20235;-73
2021/03/26 10:07:43;;;;;;;0.50;0.50;;;15.70;86.10;;;;;;4994544;28;20204;-73
2021/03/26 10:13:09;;;;;;;0.40;0.40;;;15.90;85.10;;;;;;4994420;28;20700;-74
2021/03/26 10:15:40;;;;;;;0.50;0.50;;;16.00;84.60;;;;;;4993883;28;20265;-74
2021/03/26 10:18:11;;;;;;;0.40;0.40;;;16.00;83.10;;;;;;4994474;28;20234;-74
2021/03/26 10:20:46;;;;;;;0.40;0.40;;;15.90;83.20;;;;;;4994640;28;20224;-75
2021/03/26 10:23:29;;;;;;;0.40;0.40;;;16.00;83.10;;;;;;4994324;28;20210;-74
2021/03/26 10:26:09;;;;;;;0.40;0.40;;;15.90;82.80;;;;;;4993794;28;20739;-74
2021/03/26 10:29:03;;;;;;;0.40;0.40;;;15.90;82.60;;;;;;4993878;28;20616;-74
2021/03/26 10:31:33;;;;;;;0.40;0.40;;;15.90;83.70;;;;;;4993644;28;20224;-75
2021/03/26 10:34:02;;;;;;;0.50;0.50;;;15.90;82.60;;;;;;4994306;28;20240;-75
2021/03/26 10:36:39;;;;;;;0.40;0.40;;;16.00;82.30;;;;;;4993532;28;20211;-74
2021/03/26 10:39:10;;;;;;;0.40;0.40;;;16.10;82.20;;;;;;4993780;28;20207;-74
2021/03/26 10:41:51;;;;;;;0.40;0.40;;;16.20;81.70;;;;;;4993639;28;20219;-74
2021/03/26 10:44:27;;;;;;;0.40;0.40;;;16.20;81.40;;;;;;4993679;28;20219;-74
2021/03/26 10:47:04;;;;;;;0.50;0.50;;;16.20;81.30;;;;;;4992866;28;20614;-74
2021/03/26 10:49:37;;;;;;;0.40;0.40;;;16.20;80.80;;;;;;4993629;28;20214;-74
2021/03/26 10:52:07;;;;;;;0.40;0.40;;;;;;;;;;4993457;28;20220;-73
2021/03/26 10:54:45;;;;;;;0.40;0.40;;;16.80;99.90;;;;;;4993232;28;20668;-74
2021/03/26 10:57:29;;;;;;;0.40;0.40;;;17.00;78.80;;;;;;4993392;28;20212;-74
2021/03/26 11:00:01;;;;;;;0.40;0.40;;;17.20;76.70;;;;;;4993358;28;20576;-73
2021/03/26 11:02:56;;;;;;;0.30;0.30;;;17.00;76.10;;;;;;4993401;28;20236;-75
2021/03/26 11:05:31;;;;;;;0.40;0.40;;;17.00;78.00;;;;;;4992936;28;20615;-74
2021/03/26 11:08:35;;;;;;;0.47;0.47;;;16.80;76.70;;;;;;4993450;28;20266;-74
2021/03/26 11:11:12;;;;;;;0.30;0.30;;;16.90;77.00;;;;;;4962271;28;20236;-75
2021/03/26 11:14:02;;;;;;;0.30;0.30;;;17.00;77.70;;;;;;4993306;28;20615;-75
2021/03/26 11:16:37;;;;;;;0.38;0.38;;;16.90;75.20;;;;;;4992981;28;20282;-74
2021/03/26 11:19:11;;;;;;;0.30;0.30;;;16.90;75.80;;;;;;4993083;28;20204;-74
2021/03/26 11:21:43;;;;;;;0.40;0.40;;;17.00;75.90;;;;;;4992853;28;20231;-75
2021/03/26 11:24:11;;;;;;;0.40;0.40;;;16.90;74.60;;;;;;4993311;28;20207;-73
2021/03/26 11:26:44;;;;;;;0.40;0.40;;;16.80;75.70;;;;;;4992681;28;20262;-74
2021/03/26 11:29:21;;;;;;;0.40;0.40;;;16.80;76.10;;;;;;4993108;28;20208;-73
2021/03/26 11:31:54;;;;;;;0.30;0.30;;;16.90;75.80;;;;;;4992582;28;20231;-73
2021/03/26 11:34:30;;;;;;;0.40;0.40;;;17.10;74.90;;;;;;4992789;28;20204;-73
2021/03/26 11:37:04;;;;;;;0.50;0.50;;;17.30;74.30;;;;;;4993568;28;20972;-73
2021/03/26 11:39:37;;;;;;;0.35;0.35;;;17.30;74.10;;;;;;4996608;28;20594;-75
2021/03/26 11:42:19;;;;;;;0.30;0.30;;;;;;;;;;4994737;28;20225;-73
2021/03/26 11:44:56;;;;;;;0.30;0.30;;;18.00;72.60;;;;;;4992258;28;20204;-73
2021/03/26 11:47:43;;;;;;;0.30;0.30;;;18.20;71.50;;;;;;4992737;28;20267;-73
2021/03/26 11:50:23;;;;;;;0.30;0.30;;;18.60;96.00;;;;;;4992480;28;20204;-73
2021/03/26 11:53:21;;;;;;;0.30;0.30;;;18.60;68.90;;;;;;4992499;28;20570;-73
2021/03/26 11:56:22;;;;;;;0.40;0.40;;;18.50;66.70;;;;;;4992331;28;20210;-73
2021/03/26 11:59:09;;;;;;;0.30;0.30;;;18.40;66.20;;;;;;4959476;28;20228;-73
2021/03/26 12:01:46;;;;;;;0.40;0.40;;;18.30;63.70;;;;;;4992435;28;20755;-73
2021/03/26 12:04:19;;;;;;;0.30;0.30;;;;;;;;;;4992669;28;20200;-73
2021/03/26 12:06:53;;;;;;;0.40;0.40;;;18.10;92.10;;;;;;4991957;28;20620;-73
2021/03/26 12:09:30;;;;;;;0.40;0.40;;;17.50;94.30;;;;;;4992325;28;20234;-72
2021/03/26 12:12:08;;;;;;;0.40;0.40;;;17.10;91.50;;;;;;4991768;28;20250;-73
2021/03/26 12:14:47;;;;;;;0.30;0.30;;;17.10;70.20;;;;;;4992208;28;20211;-73
2021/03/26 12:17:35;;;;;;;0.50;0.50;;;;;;;;;;4992173;28;20199;-73
2021/03/26 12:20:11;;;;;;;0.40;0.40;;;16.80;66.60;;;;;;4992152;28;20585;-73
2021/03/26 12:22:47;;;;;;;0.40;0.40;;;16.80;69.00;;;;;;4992116;28;20203;-73
2021/03/26 12:25:23;;;;;;;0.40;0.40;;;16.50;70.30;;;;;;4992287;28;20208;-73
2021/03/26 12:27:53;;;;;;;0.30;0.30;;;16.40;71.50;;;;;;4992244;28;20230;-73
2021/03/26 12:30:27;;;;;;;0.40;0.40;;;16.50;95.00;;;;;;4992059;28;20727;-72
2021/03/26 12:32:58;;;;;;;0.50;0.50;;;16.40;71.20;;;;;;4991826;28;20279;-73
2021/03/26 12:35:29;;;;;;;0.40;0.40;;;16.40;71.80;;;;;;4991690;28;20212;-74
2021/03/26 12:38:06;;;;;;;0.40;0.40;;;16.50;71.60;;;;;;4992457;28;20235;-73
2021/03/26 12:41:00;;;;;;;0.45;0.45;;;16.60;71.30;;;;;;4992126;28;20223;-73
2021/03/26 12:43:37;;;;;;;0.32;0.32;;;16.60;71.30;;;;;;4991681;28;20214;-74
2021/03/26 12:46:17;;;;;;;0.50;0.50;;;16.80;71.00;;;;;;4991641;28;20734;-73
2021/03/26 12:48:49;;;;;;;0.50;0.50;;;17.00;70.60;;;;;;4991802;28;20208;-73
2021/03/26 12:51:23;;;;;;;0.40;0.40;;;17.00;70.80;;;;;;4991565;28;20278;-73
2021/03/26 12:53:55;;;;;;;0.40;0.40;;;17.20;71.00;;;;;;4991469;28;20664;-73
2021/03/26 12:56:28;;;;;;;0.40;0.40;;;17.20;71.00;;;;;;4991579;28;20208;-73
2021/03/26 12:59:08;;;;;;;0.40;0.40;;;17.20;69.70;;;;;;4991861;28;20209;-73
2021/03/26 13:01:45;;;;;;;0.40;0.40;;;17.10;69.50;;;;;;4991774;28;20700;-73
2021/03/26 13:04:40;;;;;;;0.40;0.40;;;17.10;68.60;;;;;;4991627;28;20210;-72
2021/03/26 13:07:24;;;;;;;0.40;0.40;;;17.20;69.30;;;;;;4991524;28;20208;-73
2021/03/26 13:09:57;;;;;;;0.40;0.40;;;17.20;68.80;;;;;;4993729;28;20204;-73
2021/03/26 13:12:29;;;;;;;0.40;0.40;;;17.30;69.90;;;;;;4994979;28;20232;-73
2021/03/26 13:15:01;;;;;;;0.40;0.40;;;17.20;69.80;;;;;;4995228;28;20211;-73
2021/03/26 13:17:32;;;;;;;0.30;0.30;;;17.30;70.00;;;;;;4995580;28;20204;-73
2021/03/26 13:20:04;;;;;;;0.30;0.30;;;17.40;70.40;;;;;;4995330;28;20203;-74
2021/03/26 13:22:40;;;;;;;0.32;0.32;;;17.50;70.80;;;;;;4994973;28;20223;-73
2021/03/26 13:25:24;;;;;;;0.30;0.30;;;17.80;70.30;;;;;;4995044;28;20600;-73
2021/03/26 13:28:09;;;;;;;0.30;0.30;;;17.80;67.30;;;;;;4995168;28;20204;-73
2021/03/26 13:30:42;;;;;;;0.30;0.30;;;17.60;66.90;;;;;;4994992;28;20573;-73
2021/03/26 13:33:36;;;;;;;0.40;0.40;;;17.50;66.60;;;;;;4995051;28;20224;-73
2021/03/26 13:36:12;;;;;;;0.30;0.30;;;17.50;66.70;;;;;;4995076;28;20303;-73
2021/03/26 13:38:56;;;;;;;0.32;0.32;;;17.40;67.00;;;;;;4994969;28;20238;-73
2021/03/26 13:41:32;;;;;;;0.30;0.30;;;17.40;69.30;;;;;;4994899;28;20772;-74
2021/03/26 13:44:24;;;;;;;0.40;0.40;;;17.40;70.00;;;;;;4995092;28;20207;-73
2021/03/26 13:47:01;;;;;;;0.40;0.40;;;17.60;68.90;;;;;;4994931;28;20262;-74
2021/03/26 13:49:30;;;;;;;0.30;0.30;;;17.70;68.90;;;;;;4994926;28;20208;-73
2021/03/26 13:52:03;;;;;;;0.30;0.30;;;17.80;68.60;;;;;;4994429;28;20287;-74
2021/03/26 13:54:34;;;;;;;0.40;0.40;;;18.10;68.60;;;;;;4995074;28;20194;-73
2021/03/26 13:57:05;;;;;;;0.30;0.30;;;18.00;67.60;;;;;;4994514;28;20210;-73
2021/03/26 13:59:40;;;;;;;0.30;0.30;;;17.90;68.30;;;;;;4994622;28;20204;-74
2021/03/26 14:02:19;;;;;;;0.30;0.30;;;17.80;68.50;;;;;;4994468;28;20594;-73
2021/03/26 14:05:29;;;;;;;0.40;0.40;;;17.90;68.30;;;;;;4994427;28;20208;-74
2021/03/26 14:08:11;;;;;;;0.40;0.40;;;17.80;68.80;;;;;;4994256;28;20210;-73
2021/03/26 14:11:01;;;;;;;0.40;0.40;;;17.90;69.20;;;;;;4994240;28;20247;-73
2021/03/26 14:13:34;;;;;;;0.30;0.30;;;17.80;68.40;;;;;;4981706;28;20251;-74
2021/03/26 14:16:27;;;;;;;0.30;0.30;;;17.90;68.40;;;;;;4994067;28;20204;-73
2021/03/26 14:19:03;;;;;;;0.50;0.50;;;18.00;69.40;;;;;;4980613;28;20642;-74
2021/03/26 14:21:57;;;;;;;0.30;0.30;;;18.10;69.00;;;;;;4993486;28;20231;-73
2021/03/26 14:24:43;;;;;;;0.30;0.30;;;18.20;69.10;;;;;;4994212;28;20258;-73
2021/03/26 14:27:28;;;;;;;0.30;0.30;;;17.90;69.30;;;;;;4994044;28;20266;-73
2021/03/26 14:30:10;;;;;;;0.30;0.30;;;18.00;68.00;;;;;;4993849;28;20208;-73
2021/03/26 14:32:44;;;;;;;0.30;0.30;;;17.90;68.20;;;;;;4993967;28;20223;-74
2021/03/26 14:35:21;;;;;;;0.30;0.30;;;18.20;68.40;;;;;;4993732;28;20660;-73
2021/03/26 14:37:56;;;;;;;0.30;0.30;;;18.40;68.70;;;;;;4993864;28;20204;-73
2021/03/26 14:40:27;;;;;;;0.40;0.40;;;18.10;94.10;;;;;;4993597;28;20634;-74
2021/03/26 14:43:03;;;;;;;0.40;0.40;;;18.10;68.80;;;;;;4993781;28;20274;-73
2021/03/26 14:45:36;;;;;;;0.40;0.40;;;18.10;68.40;;;;;;4993962;28;20204;-74
2021/03/26 14:48:20;;;;;;;0.32;0.32;;;18.10;68.30;;;;;;4993531;28;20203;-74
2021/03/26 14:50:59;;;;;;;0.30;0.30;;;18.20;68.00;;;;;;4993516;28;20747;-73
2021/03/26 14:53:30;;;;;;;0.30;0.30;;;18.20;67.70;;;;;;4993510;28;20228;-74
2021/03/26 14:56:04;;;;;;;0.40;0.40;;;18.30;67.80;;;;;;4993294;28;20673;-74
2021/03/26 14:58:38;;;;;;;0.40;0.40;;;18.40;67.50;;;;;;4993604;28;20665;-74
2021/03/26 15:01:13;;;;;;;0.30;0.30;;;18.40;67.40;;;;;;4993469;28;20714;-74
2021/03/26 15:04:02;;;;;;;0.30;0.30;;;18.30;67.00;;;;;;4991034;28;20200;-74
2021/03/26 15:06:36;;;;;;;0.40;0.40;;;18.50;67.60;;;;;;4974366;28;20208;-73
2021/03/26 15:09:12;;;;;;;0.30;0.30;;;18.40;67.10;;;;;;4972839;28;20231;-74
2021/03/26 15:12:05;;;;;;;0.30;0.30;;;18.60;66.50;;;;;;4973876;28;20541;-72
2021/03/26 15:14:46;;;;;;;0.30;0.30;;;18.50;67.20;;;;;;4972893;28;20220;-73
2021/03/26 15:17:25;;;;;;;0.30;0.30;;;18.60;66.40;;;;;;4973692;28;20260;-73
2021/03/26 15:19:54;;;;;;;0.32;0.32;;;18.50;66.90;;;;;;4973560;28;20247;-73
2021/03/26 15:22:37;;;;;;;0.30;0.30;;;18.50;66.60;;;;;;4973327;28;20220;-73
2021/03/26 15:25:18;;;;;;;0.40;0.40;;;18.60;66.30;;;;;;4973375;28;20207;-73
2021/03/26 15:28:07;;;;;;;0.50;0.50;;;18.40;66.40;;;;;;4973345;28;20207;-73
2021/03/26 15:30:38;;;;;;;0.30;0.30;;;18.50;66.30;;;;;;4971398;28;20231;-72
2021/03/26 15:33:12;;;;;;;0.40;0.40;;;18.60;66.60;;;;;;4992413;28;20664;-73
2021/03/26 15:35:46;;;;;;;0.30;0.30;;;18.40;66.50;;;;;;4984357;28;20228;-74
2021/03/26 15:38:23;;;;;;;0.40;0.40;;;18.60;66.60;;;;;;4992720;28;20211;-75
2021/03/26 15:41:12;;;;;;;0.30;0.30;;;18.60;65.70;;;;;;4992729;28;20307;-74
2021/03/26 15:43:46;;;;;;;0.40;0.40;;;18.80;65.00;;;;;;4992681;28;20639;-73
2021/03/26 15:46:22;;;;;;;0.30;0.30;;;18.60;67.50;;;;;;4992260;28;20204;-73
2021/03/26 15:48:59;;;;;;;0.38;0.38;;;18.80;66.90;;;;;;4987019;28;20207;-73
2021/03/26 15:51:29;;;;;;;0.30;0.30;;;18.90;67.80;;;;;;4985452;28;20223;-73
2021/03/26 15:54:18;;;;;;;0.40;0.40;;;18.60;66.60;;;;;;4985810;28;20522;-73
2021/03/26 15:56:47;;;;;;;0.30;0.30;;;18.60;67.10;;;;;;4977301;28;20263;-73
2021/03/26 15:59:30;;;;;;;0.30;0.30;;;18.50;66.20;;;;;;4972124;28;20224;-74
2021/03/26 16:02:23;;;;;;;0.30;0.30;;;18.40;67.50;;;;;;4972682;28;20275;-73
2021/03/26 16:05:18;;;;;;;0.30;0.30;;;18.30;67.70;;;;;;4972376;28;20209;-73
2021/03/26 16:07:50;;;;;;;0.32;0.32;;;;;;;;;;4960414;28;20212;-73
2021/03/26 16:10:31;;;;;;;0.30;0.30;;;18.20;87.60;;;;;;4972993;28;20205;-73
2021/03/26 16:13:25;;;;;;;0.30;0.30;;;18.40;66.40;;;;;;4972873;28;20224;-73
2021/03/26 16:16:12;;;;;;;0.30;0.30;;;18.20;66.90;;;;;;4972687;28;20204;-74
2021/03/26 16:19:08;;;;;;;0.30;0.30;;;18.10;66.50;;;;;;4972902;28;20200;-74
2021/03/26 16:21:46;;;;;;;0.30;0.30;;;18.00;66.70;;;;;;4972653;28;20374;-73
2021/03/26 16:24:44;;;;;;;0.30;0.30;;;18.10;67.40;;;;;;4972146;28;20215;-75
2021/03/26 16:27:26;;;;;;;0.30;0.30;;;18.10;66.40;;;;;;4957743;28;20213;-74
2021/03/26 16:30:04;;;;;;;0.30;0.30;;;18.20;66.70;;;;;;4978099;28;20640;-74
2021/03/26 16:32:57;;;;;;;0.30;0.30;;;18.00;67.20;;;;;;4972189;28;20310;-73
2021/03/26 16:36:02;;;;;;;0.38;0.38;;;17.90;67.50;;;;;;4974170;28;20209;-73
2021/03/26 16:38:45;;;;;;;0.30;0.30;;;17.90;69.80;;;;;;4986388;28;20227;-74
2021/03/26 16:41:48;;;;;;;0.40;0.40;;;17.80;70.40;;;;;;4990926;28;20697;-74
2021/03/26 16:44:39;;;;;;;0.30;0.30;;;17.60;70.80;;;;;;4990673;28;20289;-73
2021/03/26 16:47:19;;;;;;;0.40;0.40;;;17.50;70.80;;;;;;4963160;28;20249;-74
2021/03/26 16:49:54;;;;;;;0.40;0.40;;;17.50;71.20;;;;;;4996023;28;20215;-73
2021/03/26 16:52:59;;;;;;;0.35;0.35;;;17.30;71.80;;;;;;4996080;28;20223;-73
2021/03/26 16:55:31;;;;;;;0.40;0.40;;;17.10;72.50;;;;;;4995109;28;20203;-73
2021/03/26 16:58:23;;;;;;;0.30;0.30;;;17.10;72.90;;;;;;4995579;28;20459;-73
2021/03/26 17:01:29;;;;;;;0.30;0.30;;;16.90;73.20;;;;;;4986963;28;20283;-72
2021/03/26 17:04:35;;;;;;;0.30;0.30;;;16.70;74.30;;;;;;4975706;28;20200;-72
2021/03/26 17:07:46;;;;;;;0.40;0.40;;;16.50;74.50;;;;;;4976628;28;20673;-74
2021/03/26 17:10:37;;;;;;;0.40;0.40;;;16.40;74.80;;;;;;4986374;28;20256;-74
2021/03/26 17:14:12;;;;;;;0.40;0.40;;;16.40;78.50;;;;;;4979110;28;20224;-73
2021/03/26 17:17:18;;;;;;;0.40;0.40;;;16.30;75.50;;;;;;4976505;28;20212;-73
2021/03/26 17:20:22;;;;;;;0.40;0.40;;;16.20;76.40;;;;;;4975727;28;20219;-73
2021/03/26 17:23:06;;;;;;;0.40;0.40;;;16.10;76.60;;;;;;4966272;28;20636;-75
2021/03/26 17:26:01;;;;;;;0.30;0.30;;;16.00;76.60;;;;;;4975721;28;20209;-75
2021/03/26 17:28:58;;;;;;;0.30;0.30;;;16.00;77.50;;;;;;4975880;28;20213;-76
2021/03/26 17:31:49;;;;;;;0.40;0.40;;;16.00;78.60;;;;;;4975667;28;20229;-73
2021/03/26 17:34:32;;;;;;;0.40;0.40;;;16.00;79.20;;;;;;4975589;28;20229;-76
2021/03/26 17:37:30;;;;;;;0.40;0.40;;;15.90;79.00;;;;;;4975351;28;20211;-74
2021/03/26 17:40:27;;;;;;;0.30;0.30;;;15.80;79.90;;;;;;4976532;28;20259;-78
2021/03/26 17:43:21;;;;;;;0.40;0.40;;;15.70;80.80;;;;;;4970626;28;20205;-77
2021/03/26 17:46:01;;;;;;;0.40;0.40;;;15.60;82.00;;;;;;4975029;28;20276;-74
2021/03/26 17:48:42;;;;;;;0.40;0.40;;;15.40;82.60;;;;;;4975429;28;20288;-75
2021/03/26 17:51:33;;;;;;;0.50;0.50;;;15.30;83.70;;;;;;4976412;28;20598;-76
2021/03/26 17:54:31;;;;;;;0.40;0.40;;;15.20;84.00;;;;;;4974887;28;20251;-76
2021/03/26 17:57:28;;;;;;;0.40;0.40;;;15.00;85.00;;;;;;4973968;28;20209;-76
2021/03/26 18:00:40;;;;;;;0.40;0.40;;;14.90;84.70;;;;;;4972918;28;20215;-76
2021/03/26 18:03:22;;;;;;;0.40;0.40;;;14.70;86.30;;;;;;4975238;28;20204;-76
2021/03/26 18:06:29;;;;;;;0.40;0.40;;;14.30;97.30;;;;;;4989475;28;20286;-76
2021/03/26 18:09:02;;;;;;;0.40;0.40;;;14.30;87.00;;;;;;4959837;28;20200;-75
2021/03/26 18:11:41;;;;;;;0.50;0.50;;;14.30;88.20;;;;;;4974639;28;20232;-76
2021/03/26 18:14:18;;;;;;;0.50;0.50;;;14.20;89.10;;;;;;4974622;28;20260;-75
2021/03/26 18:16:53;;;;;;;0.45;0.45;;;14.10;89.10;;;;;;4974154;28;20208;-76
2021/03/26 18:19:30;;;;;;;0.50;0.50;;;14.10;89.90;;;;;;4975152;28;20608;-74
2021/03/26 18:22:27;;;;;;;0.60;0.60;;;13.90;89.30;;;;;;4974351;28;20263;-78
2021/03/26 18:25:29;;;;;;;0.40;0.40;;;13.90;90.00;;;;;;4974209;28;20222;-75
2021/03/26 18:28:17;;;;;;;0.52;0.52;;;13.70;99.90;;;;;;4974357;28;20200;-75
2021/03/26 18:31:41;;;;;;;0.50;0.50;;;13.70;91.00;;;;;;4974105;28;20732;-74
2021/03/26 18:34:37;;;;;;;0.50;0.50;;;13.70;91.20;;;;;;4933510;29;20538;-74
2021/03/26 18:37:13;;;;;;;0.40;0.40;;;13.60;91.30;;;;;;4972792;28;20259;-74
2021/03/26 18:39:45;;;;;;;0.50;0.50;;;13.50;91.40;;;;;;4974782;28;20603;-74
2021/03/26 18:42:45;;;;;;;0.60;0.60;;;13.40;91.70;;;;;;4974399;28;20224;-74
2021/03/26 18:45:48;;;;;;;0.50;0.50;;;13.30;91.70;;;;;;4973846;28;20616;-76
2021/03/26 18:48:40;;;;;;;0.40;0.40;;;13.20;92.20;;;;;;4980881;28;20587;-76
2021/03/26 18:51:16;;;;;;;0.60;0.60;;;13.10;97.00;;;;;;4981399;28;20229;-76
2021/03/26 18:54:04;;;;;;;0.50;0.50;;;13.10;99.90;;;;;;4981949;28;20287;-77
2021/03/26 18:56:42;;;;;;;0.50;0.50;;;13.00;98.00;;;;;;4974881;28;20201;-78
2021/03/26 18:59:24;;;;;;;0.50;0.50;;;13.00;96.40;;;;;;4976473;28;20662;-78
2021/03/26 19:02:15;;;;;;;0.60;0.60;;;12.90;93.00;;;;;;4974322;28;20228;-77
2021/03/26 19:04:44;;;;;;;0.60;0.60;;;12.80;96.50;;;;;;4975649;28;20599;-78
2021/03/26 19:07:20;;;;;;;0.60;0.60;;;12.80;97.90;;;;;;4974938;28;20227;-78
2021/03/26 19:09:55;;;;;;;0.60;0.60;;;12.70;95.60;;;;;;4976840;28;20211;-77
2021/03/26 19:12:32;;;;;;;0.60;0.60;;;12.70;95.40;;;;;;4975102;28;20236;-78
2021/03/26 19:15:33;;;;;;;0.60;0.60;;;12.60;96.00;;;;;;4976037;28;20215;-78
2021/03/26 19:18:41;;;;;;;0.50;0.50;;;12.70;96.50;;;;;;4974247;28;20207;-78
2021/03/26 19:21:24;;;;;;;0.45;0.45;;;12.50;94.20;;;;;;4967476;28;20234;-76
2021/03/26 19:24:15;;;;;;;0.60;0.60;;;12.50;96.00;;;;;;4973666;28;20216;-76
2021/03/26 19:26:49;;;;;;;0.50;0.50;;;12.40;97.90;;;;;;4973277;28;20204;-74
2021/03/26 19:29:38;;;;;;;0.60;0.60;;;12.20;99.90;;;;;;4973754;28;20541;-76